createdAt,value
2023-01-22T00:00:45.366Z,10.60
2023-01-22T00:03:13.311Z,10.48
2023-01-22T00:05:40.910Z,10.25
2023-01-22T00:08:09.291Z,9.95
2023-01-22T00:10:37.333Z,10.23
2023-01-22T00:13:06.350Z,9.73
2023-01-22T00:15:33.869Z,9.50
2023-01-22T00:18:02.257Z,10.05
2023-01-22T00:20:30.408Z,10.02
2023-01-22T00:22:57.966Z,9.45
2023-01-22T00:25:27.278Z,10.90
2023-01-22T00:27:55.374Z,9.55
2023-01-22T00:30:25.280Z,9.50
2023-01-22T00:32:53.731Z,8.65
2023-01-22T00:35:21.315Z,9.10
2023-01-22T00:37:49.815Z,10.40
2023-01-22T00:40:18.389Z,9.82
2023-01-22T00:42:46.121Z,9.40
2023-01-22T00:45:15.024Z,9.88
2023-01-22T00:47:45.318Z,9.73
2023-01-22T00:50:17.050Z,10.18
2023-01-22T00:52:45.715Z,10.20
2023-01-22T00:55:13.638Z,9.88
2023-01-22T00:57:41.783Z,10.88
2023-01-22T01:00:11.248Z,10.05
2023-01-22T01:03:00.311Z,10.02
2023-01-22T01:05:29.497Z,9.02
2023-01-22T01:07:57.009Z,10.15
2023-01-22T01:10:26.317Z,10.05
2023-01-22T01:12:56.297Z,10.35
2023-01-22T01:15:24.201Z,9.77
2023-01-22T01:17:52.138Z,9.68
2023-01-22T01:20:20.487Z,9.60
2023-01-22T01:22:50.330Z,9.95
2023-01-22T01:25:18.755Z,10.50
2023-01-22T01:27:46.286Z,9.70
2023-01-22T01:30:13.986Z,9.73
2023-01-22T01:32:41.609Z,10.05
2023-01-22T01:35:10.129Z,9.68
2023-01-22T01:37:40.693Z,10.23
2023-01-22T01:40:11.343Z,10.38
2023-01-22T01:42:43.136Z,9.23
2023-01-22T01:45:28.794Z,9.88
2023-01-22T01:48:05.437Z,9.85
2023-01-22T01:50:34.604Z,9.40
2023-01-22T01:53:03.197Z,9.85
2023-01-22T01:55:35.476Z,9.75
2023-01-22T01:58:10.368Z,9.50
2023-01-22T02:00:42.296Z,9.65
2023-01-22T02:03:10.799Z,9.30
2023-01-22T02:05:39.892Z,9.32
2023-01-22T02:08:12.276Z,9.30
2023-01-22T02:10:44.346Z,9.48
2023-01-22T02:15:43.443Z,10.10
2023-01-22T02:18:11.964Z,9.85
2023-01-22T02:20:41.604Z,9.75
2023-01-22T02:23:10.305Z,9.73
2023-01-22T02:25:38.660Z,10.05
2023-01-22T02:28:10.357Z,10.13
2023-01-22T02:30:38.088Z,10.75
2023-01-22T02:33:05.995Z,10.15
2023-01-22T02:35:34.298Z,10.45
2023-01-22T02:38:05.365Z,9.98
2023-01-22T02:40:50.265Z,9.73
2023-01-22T02:43:20.441Z,10.68
2023-01-22T02:45:48.223Z,10.00
2023-01-22T02:48:16.816Z,10.27
2023-01-22T02:50:45.223Z,10.10
2023-01-22T02:53:18.178Z,10.25
2023-01-22T02:55:47.097Z,10.73
2023-01-22T02:58:17.132Z,10.73
2023-01-22T03:00:45.778Z,10.07
2023-01-22T03:03:18.314Z,10.55
2023-01-22T03:05:49.374Z,9.85
2023-01-22T03:08:21.289Z,11.05
2023-01-22T03:10:48.859Z,10.77
2023-01-22T03:13:33.960Z,11.07
2023-01-22T03:16:29.068Z,10.35
2023-01-22T03:19:17.018Z,11.13
2023-01-22T03:21:44.717Z,10.73
2023-01-22T03:24:14.331Z,10.70
2023-01-22T03:26:42.004Z,10.50
2023-01-22T03:29:10.297Z,11.65
2023-01-22T03:31:38.716Z,11.05
2023-01-22T03:34:06.389Z,10.95
2023-01-22T03:36:34.147Z,11.23
2023-01-22T03:39:05.429Z,11.00
2023-01-22T03:41:35.302Z,11.55
2023-01-22T03:44:03.529Z,11.30
2023-01-22T03:49:06.283Z,10.95
2023-01-22T03:51:35.343Z,10.02
2023-01-22T03:54:05.129Z,10.73
2023-01-22T03:56:36.017Z,11.80
2023-01-22T04:02:03.343Z,10.55
2023-01-22T04:04:35.290Z,11.23
2023-01-22T04:07:03.350Z,9.82
2023-01-22T04:09:30.931Z,10.35
2023-01-22T04:12:00.937Z,11.02
2023-01-22T04:14:29.362Z,10.57
2023-01-22T04:17:00.809Z,10.80
2023-01-22T04:20:04.963Z,11.15
2023-01-22T04:22:52.454Z,11.65
2023-01-22T04:25:23.266Z,11.95
2023-01-22T04:27:53.215Z,10.93
2023-01-22T04:30:21.275Z,10.48
2023-01-22T04:32:55.004Z,10.52
2023-01-22T04:35:43.315Z,10.90
2023-01-22T04:38:13.867Z,10.85
2023-01-22T04:40:42.544Z,11.35
2023-01-22T04:43:12.027Z,11.43
2023-01-22T04:45:40.285Z,10.63
2023-01-22T04:48:10.938Z,10.85
2023-01-22T04:50:40.462Z,10.38
2023-01-22T04:53:11.911Z,10.32
2023-01-22T04:55:42.306Z,10.35
2023-01-22T04:58:37.310Z,10.40
2023-01-22T05:01:06.542Z,9.77
2023-01-22T05:03:34.306Z,10.13
2023-01-22T05:06:08.310Z,10.00
2023-01-22T05:08:40.340Z,9.18
2023-01-22T05:11:09.554Z,9.88
2023-01-22T05:13:45.617Z,9.52
2023-01-22T05:16:13.930Z,10.02
2023-01-22T05:18:42.404Z,9.32
2023-01-22T05:21:10.695Z,9.80
2023-01-22T05:23:39.444Z,10.02
2023-01-22T05:26:13.299Z,10.25
2023-01-22T05:28:53.677Z,9.52
2023-01-22T05:31:31.307Z,9.35
2023-01-22T05:34:15.594Z,9.43
2023-01-22T05:36:43.762Z,10.02
2023-01-22T05:39:18.373Z,9.57
2023-01-22T05:41:47.283Z,9.63
2023-01-22T05:44:17.040Z,9.30
2023-01-22T05:46:50.594Z,9.63
2023-01-22T05:50:08.122Z,9.30
2023-01-22T05:52:37.412Z,8.73
2023-01-22T05:55:05.796Z,9.32
2023-01-22T05:57:45.364Z,8.95
2023-01-22T06:00:17.770Z,9.68
2023-01-22T06:02:50.206Z,9.57
2023-01-22T06:05:18.318Z,9.23
2023-01-22T06:07:51.347Z,9.48
2023-01-22T06:10:29.724Z,9.18
2023-01-22T06:12:59.339Z,9.38
2023-01-22T06:15:28.234Z,9.15
2023-01-22T06:18:05.286Z,9.60
2023-01-22T06:20:33.453Z,9.80
2023-01-22T06:23:01.295Z,9.80
2023-01-22T06:25:31.883Z,9.80
2023-01-22T06:28:09.726Z,10.40
2023-01-22T06:30:40.135Z,9.90
2023-01-22T06:33:08.282Z,10.73
2023-01-22T06:35:35.879Z,10.05
2023-01-22T06:38:04.353Z,10.02
2023-01-22T06:40:35.757Z,10.63
2023-01-22T06:43:05.075Z,10.60
2023-01-22T06:45:34.274Z,10.55
2023-01-22T06:48:08.883Z,10.00
2023-01-22T06:50:38.287Z,9.60
2023-01-22T06:53:06.332Z,9.02
2023-01-22T06:55:35.845Z,10.13
2023-01-22T06:58:03.720Z,10.43
2023-01-22T07:00:32.104Z,9.90
2023-01-22T07:03:02.052Z,10.32
2023-01-22T07:05:31.264Z,10.68
2023-01-22T07:07:58.862Z,10.07
2023-01-22T07:10:26.747Z,9.90
2023-01-22T07:12:55.819Z,9.95
2023-01-22T07:15:23.699Z,9.77
2023-01-22T07:17:53.359Z,9.70
2023-01-22T07:20:22.192Z,9.48
2023-01-22T07:22:51.335Z,9.60
2023-01-22T07:25:20.346Z,9.55
2023-01-22T07:27:47.967Z,10.02
2023-01-22T07:30:16.272Z,10.10
2023-01-22T07:32:44.016Z,9.30
2023-01-22T07:35:36.023Z,9.40
2023-01-22T07:40:32.987Z,9.27
2023-01-22T07:43:00.627Z,9.75
2023-01-22T07:45:29.361Z,10.05
2023-01-22T07:47:58.699Z,10.13
2023-01-22T07:50:30.629Z,10.23
2023-01-22T07:53:00.478Z,10.27
2023-01-22T07:55:31.224Z,10.43
2023-01-22T07:58:00.355Z,11.45
2023-01-22T08:00:28.072Z,10.30
2023-01-22T08:02:59.829Z,10.60
2023-01-22T08:05:28.894Z,10.77
2023-01-22T08:07:57.267Z,11.07
2023-01-22T08:10:24.802Z,10.68
2023-01-22T08:12:53.756Z,10.82
2023-01-22T08:15:21.677Z,10.48
2023-01-22T08:17:50.673Z,10.75
2023-01-22T08:20:19.287Z,10.95
2023-01-22T08:22:48.041Z,11.52
2023-01-22T08:25:16.110Z,10.98
2023-01-22T08:27:43.724Z,11.13
2023-01-22T08:30:14.288Z,11.38
2023-01-22T08:32:45.311Z,10.55
2023-01-22T08:35:15.314Z,11.57
2023-01-22T08:37:43.953Z,11.30
2023-01-22T08:40:12.419Z,11.40
2023-01-22T08:42:40.348Z,11.32
2023-01-22T08:48:29.335Z,11.20
2023-01-22T08:51:01.833Z,11.30
2023-01-22T08:53:34.269Z,10.55
2023-01-22T08:56:01.875Z,10.75
2023-01-22T08:58:32.262Z,11.07
2023-01-22T09:01:01.331Z,10.73
2023-01-22T09:03:31.358Z,11.48
2023-01-22T09:05:59.811Z,11.98
2023-01-22T09:08:28.292Z,10.82
2023-01-22T09:10:56.259Z,10.55
2023-01-22T09:13:24.355Z,11.63
2023-01-22T09:15:52.271Z,10.48
2023-01-22T09:18:19.797Z,11.75
2023-01-22T09:20:49.030Z,11.27
2023-01-22T09:23:17.101Z,11.32
2023-01-22T09:25:47.291Z,11.30
2023-01-22T09:28:15.003Z,11.65
2023-01-22T09:30:44.130Z,11.88
2023-01-22T09:33:13.315Z,11.73
2023-01-22T09:35:40.867Z,12.30
2023-01-22T09:38:14.397Z,11.70
2023-01-22T09:40:46.646Z,11.90
2023-01-22T09:43:26.061Z,11.77
2023-01-22T09:45:59.376Z,11.63
2023-01-22T09:48:34.633Z,13.02
2023-01-22T09:51:02.455Z,13.23
2023-01-22T09:53:31.859Z,12.45
2023-01-22T09:56:00.733Z,12.50
2023-01-22T09:58:28.380Z,12.00
2023-01-22T10:01:00.435Z,12.15
2023-01-22T10:03:33.264Z,12.93
2023-01-22T10:06:05.415Z,11.68
2023-01-22T10:08:47.209Z,12.18
2023-01-22T10:11:14.757Z,10.65
2023-01-22T10:13:42.438Z,11.52
2023-01-22T10:16:14.291Z,11.65
2023-01-22T10:21:19.232Z,11.85
2023-01-22T10:23:50.322Z,12.23
2023-01-22T10:26:24.913Z,11.50
2023-01-22T10:28:56.324Z,10.75
2023-01-22T10:31:27.387Z,11.68
2023-01-22T10:34:00.125Z,10.85
2023-01-22T10:39:14.345Z,11.52
2023-01-22T10:41:42.380Z,12.05
2023-01-22T10:44:23.783Z,11.52
2023-01-22T10:46:54.328Z,12.02
2023-01-22T10:49:26.270Z,11.32
2023-01-22T10:51:57.341Z,12.00
2023-01-22T10:54:31.277Z,13.25
2023-01-22T10:57:08.194Z,13.27
2023-01-22T10:59:39.967Z,12.82
2023-01-22T11:02:16.667Z,12.80
2023-01-22T11:04:44.399Z,16.73
2023-01-22T11:07:17.079Z,22.67
2023-01-22T11:09:50.299Z,20.42
2023-01-22T11:12:47.030Z,21.25
2023-01-22T11:20:42.991Z,15.10
2023-01-22T11:23:19.237Z,14.70
2023-01-22T11:25:57.913Z,13.43
2023-01-22T11:28:41.433Z,13.55
2023-01-22T11:31:24.582Z,17.05
2023-01-22T11:34:10.338Z,15.18
2023-01-22T11:36:46.858Z,14.40
2023-01-22T11:39:35.096Z,13.43
2023-01-22T11:42:14.972Z,12.77
2023-01-22T11:45:00.188Z,14.40
2023-01-22T11:47:48.223Z,13.25
2023-01-22T11:50:26.518Z,13.00
2023-01-22T11:53:06.477Z,13.38
2023-01-22T11:55:52.027Z,13.40
2023-01-22T11:58:29.923Z,13.10
2023-01-22T12:01:15.774Z,12.93
2023-01-22T12:04:03.257Z,12.77
2023-01-22T12:06:55.629Z,13.48
2023-01-22T12:09:27.239Z,12.45
2023-01-22T12:12:08.880Z,13.27
2023-01-22T12:14:51.434Z,15.00
2023-01-22T12:17:33.071Z,17.42
2023-01-22T12:20:45.014Z,18.23
2023-01-22T12:23:16.483Z,24.25
2023-01-22T12:25:53.271Z,16.92
2023-01-22T12:28:27.818Z,28.27
2023-01-22T12:31:01.252Z,18.80
2023-01-22T12:33:31.651Z,19.85
2023-01-22T12:36:03.316Z,15.77
2023-01-22T12:38:42.630Z,14.05
2023-01-22T12:41:24.948Z,18.80
2023-01-22T12:43:57.261Z,17.67
2023-01-22T12:49:06.353Z,15.05
2023-01-22T12:51:40.484Z,18.80
2023-01-22T12:54:11.332Z,14.63
2023-01-22T12:56:39.722Z,18.40
2023-01-22T12:59:07.368Z,15.13
2023-01-22T13:01:37.309Z,13.80
2023-01-22T13:04:08.418Z,14.40
2023-01-22T13:06:38.177Z,14.95
2023-01-22T13:09:08.224Z,23.48
2023-01-22T13:11:38.925Z,15.70
2023-01-22T13:14:17.548Z,14.85
2023-01-22T13:16:54.548Z,14.63
2023-01-22T13:19:24.298Z,14.93
2023-01-22T13:21:55.256Z,14.20
2023-01-22T13:24:23.325Z,14.15
2023-01-22T13:26:56.561Z,13.60
2023-01-22T13:29:28.489Z,13.90
2023-01-22T13:34:28.273Z,12.82
2023-01-22T13:36:57.340Z,15.10
2023-01-22T13:39:27.729Z,14.38
2023-01-22T13:44:27.389Z,14.10
2023-01-22T13:46:55.424Z,18.48
2023-01-22T13:49:27.564Z,22.83
2023-01-22T13:52:00.339Z,21.48
2023-01-22T13:54:31.702Z,14.32
2023-01-22T13:57:00.945Z,18.48
2023-01-22T13:59:34.975Z,15.57
2023-01-22T14:02:13.447Z,15.52
2023-01-22T14:04:42.486Z,15.05
2023-01-22T14:07:17.631Z,15.88
2023-01-22T14:09:46.673Z,14.95
2023-01-22T14:12:17.351Z,22.80
2023-01-22T14:14:45.599Z,19.73
2023-01-22T14:17:26.929Z,19.48
2023-01-22T14:19:56.496Z,22.90
2023-01-22T14:22:24.422Z,17.02
2023-01-22T14:24:52.847Z,14.18
2023-01-22T14:27:20.930Z,15.13
2023-01-22T14:29:48.580Z,14.10
2023-01-22T14:32:16.449Z,14.73
2023-01-22T14:34:43.998Z,15.45
2023-01-22T14:37:17.031Z,13.15
2023-01-22T14:39:44.616Z,21.27
2023-01-22T14:42:12.181Z,17.70
2023-01-22T14:44:39.766Z,16.92
2023-01-22T14:47:07.396Z,15.50
2023-01-22T14:49:36.246Z,15.80
2023-01-22T14:52:04.293Z,18.95
2023-01-22T14:54:34.066Z,13.05
2023-01-22T14:57:04.110Z,13.35
2023-01-22T14:59:31.840Z,13.88
2023-01-22T15:02:00.782Z,16.45
2023-01-22T15:04:28.413Z,17.42
2023-01-22T15:06:56.225Z,16.40
2023-01-22T15:09:48.122Z,14.95
2023-01-22T15:12:17.104Z,19.40
2023-01-22T15:14:44.685Z,18.27
2023-01-22T15:17:12.225Z,16.75
2023-01-22T15:19:41.644Z,15.35
2023-01-22T15:22:09.453Z,19.10
2023-01-22T15:24:39.268Z,14.98
2023-01-22T15:27:07.531Z,15.63
2023-01-22T15:29:36.446Z,19.75
2023-01-22T15:32:05.293Z,17.58
2023-01-22T15:34:34.793Z,15.18
2023-01-22T15:37:03.507Z,14.50
2023-01-22T15:39:31.106Z,14.32
2023-01-22T15:41:58.841Z,13.10
2023-01-22T15:44:30.344Z,13.23
2023-01-22T15:47:00.973Z,14.63
2023-01-22T15:49:32.726Z,14.82
2023-01-22T15:52:00.321Z,14.43
2023-01-22T15:54:28.367Z,12.90
2023-01-22T15:56:56.287Z,16.85
2023-01-22T15:59:24.824Z,17.40
2023-01-22T16:01:54.262Z,16.90
2023-01-22T16:04:24.154Z,18.55
2023-01-22T16:06:52.558Z,17.35
2023-01-22T16:09:20.373Z,14.93
2023-01-22T16:11:48.607Z,13.82
2023-01-22T16:14:16.241Z,12.32
2023-01-22T16:16:43.884Z,13.88
2023-01-22T16:19:13.193Z,22.27
2023-01-22T16:21:44.954Z,17.95
2023-01-22T16:24:12.622Z,15.95
2023-01-22T16:26:40.293Z,15.15
2023-01-22T16:29:09.255Z,13.98
2023-01-22T16:31:37.555Z,15.70
2023-01-22T16:34:12.456Z,14.32
2023-01-22T16:36:43.045Z,15.35
2023-01-22T16:39:18.395Z,14.95
2023-01-22T16:41:48.272Z,14.45
2023-01-22T16:44:18.277Z,13.88
2023-01-22T16:46:47.706Z,13.18
2023-01-22T16:49:18.260Z,13.52
2023-01-22T16:51:49.082Z,12.82
2023-01-22T16:54:21.281Z,12.77
2023-01-22T16:56:51.342Z,14.93
2023-01-22T16:59:19.284Z,18.88
2023-01-22T17:01:47.358Z,19.23
2023-01-22T17:04:15.259Z,21.70
2023-01-22T17:06:47.999Z,15.57
2023-01-22T17:09:17.530Z,16.00
2023-01-22T17:11:47.033Z,14.02
2023-01-22T17:14:19.021Z,23.50
2023-01-22T17:16:46.837Z,23.23
2023-01-22T17:19:14.956Z,20.13
2023-01-22T17:21:42.986Z,18.25
2023-01-22T17:24:13.226Z,16.17
2023-01-22T17:26:42.889Z,16.73
2023-01-22T17:29:11.144Z,15.82
2023-01-22T17:31:40.385Z,14.85
2023-01-22T17:34:10.957Z,15.73
2023-01-22T17:36:39.755Z,15.00
2023-01-22T17:39:07.985Z,14.68
2023-01-22T17:41:37.350Z,13.77
2023-01-22T17:44:05.149Z,13.32
2023-01-22T17:46:34.991Z,14.15
2023-01-22T17:49:06.311Z,13.55
2023-01-22T17:51:35.680Z,14.60
2023-01-22T17:54:09.279Z,13.95
2023-01-22T17:56:42.874Z,14.93
2023-01-22T17:59:13.294Z,15.35
2023-01-22T18:01:42.307Z,15.10
2023-01-22T18:04:11.711Z,15.55
2023-01-22T18:06:40.647Z,14.57
2023-01-22T18:09:09.487Z,14.68
2023-01-22T18:11:39.440Z,15.43
2023-01-22T18:14:09.597Z,18.48
2023-01-22T18:16:40.743Z,19.63
2023-01-22T18:19:10.426Z,17.63
2023-01-22T18:21:39.535Z,22.52
2023-01-22T18:24:09.423Z,20.70
2023-01-22T18:26:39.055Z,19.50
2023-01-22T18:29:07.267Z,17.70
2023-01-22T18:31:35.588Z,16.65
2023-01-22T18:34:05.899Z,16.85
2023-01-22T18:36:36.174Z,15.07
2023-01-22T18:39:06.619Z,15.05
2023-01-22T18:41:34.475Z,16.65
2023-01-22T18:44:03.826Z,16.15
2023-01-22T18:46:34.033Z,16.88
2023-01-22T18:49:06.391Z,16.10
2023-01-22T18:51:34.861Z,16.40
2023-01-22T18:54:04.747Z,17.13
2023-01-22T18:56:32.789Z,17.10
2023-01-22T18:59:01.177Z,16.60
2023-01-22T19:01:32.352Z,16.77
2023-01-22T19:04:01.874Z,16.52
2023-01-22T19:06:31.663Z,17.13
2023-01-22T19:09:03.695Z,15.80
2023-01-22T19:11:32.889Z,15.93
2023-01-22T19:14:02.916Z,15.25
2023-01-22T19:16:34.375Z,15.77
2023-01-22T19:19:11.151Z,17.17
2023-01-22T19:21:40.379Z,16.88
2023-01-22T19:24:11.467Z,17.10
2023-01-22T19:26:39.581Z,18.40
2023-01-22T19:29:09.647Z,19.08
2023-01-22T19:31:42.057Z,19.73
2023-01-22T19:34:15.166Z,18.75
2023-01-22T19:36:42.780Z,18.93
2023-01-22T19:39:13.247Z,17.55
2023-01-22T19:41:41.604Z,16.08
2023-01-22T19:44:11.731Z,17.20
2023-01-22T19:46:41.382Z,17.95
2023-01-22T19:49:13.266Z,17.13
2023-01-22T19:51:41.361Z,17.02
2023-01-22T19:54:10.179Z,16.80
2023-01-22T19:56:39.573Z,17.80
2023-01-22T19:59:09.169Z,16.55
2023-01-22T20:01:37.381Z,16.73
2023-01-22T20:04:08.874Z,16.00
2023-01-22T20:06:36.780Z,15.52
2023-01-22T20:09:04.678Z,17.08
2023-01-22T20:11:32.324Z,15.88
2023-01-22T20:14:01.332Z,15.75
2023-01-22T20:16:30.342Z,16.70
2023-01-22T20:18:58.761Z,15.18
2023-01-22T20:21:28.248Z,14.80
2023-01-22T20:23:57.334Z,14.25
2023-01-22T20:26:24.997Z,14.05
2023-01-22T20:28:52.554Z,14.38
2023-01-22T20:31:23.429Z,14.82
2023-01-22T20:33:52.533Z,15.77
2023-01-22T20:36:21.431Z,14.43
2023-01-22T20:38:52.862Z,15.10
2023-01-22T20:41:22.475Z,14.88
2023-01-22T20:43:51.470Z,14.77
2023-01-22T20:46:20.842Z,15.38
2023-01-22T20:48:49.386Z,14.63
2023-01-22T20:51:19.879Z,15.50
2023-01-22T20:53:50.394Z,14.40
2023-01-22T20:56:22.478Z,15.48
2023-01-22T20:58:57.012Z,15.13
2023-01-22T21:01:25.081Z,15.10
2023-01-22T21:03:53.703Z,14.85
2023-01-22T21:06:21.445Z,15.25
2023-01-22T21:08:52.343Z,14.93
2023-01-22T21:11:22.113Z,15.23
2023-01-22T21:13:51.153Z,15.85
2023-01-22T21:16:23.061Z,16.00
2023-01-22T21:21:20.783Z,14.38
2023-01-22T21:23:52.010Z,15.07
2023-01-22T21:26:23.618Z,14.10
2023-01-22T21:28:54.347Z,14.18
2023-01-22T21:31:23.259Z,14.50
2023-01-22T21:33:52.526Z,15.23
2023-01-22T21:36:22.261Z,14.35
2023-01-22T21:38:51.206Z,13.93
2023-01-22T21:41:19.576Z,14.52
2023-01-22T21:44:06.213Z,14.15
2023-01-22T21:46:37.127Z,13.90
2023-01-22T21:49:16.179Z,13.80
2023-01-22T21:51:46.128Z,13.48
2023-01-22T21:54:17.409Z,12.80
2023-01-22T21:56:46.136Z,13.75
2023-01-22T21:59:14.259Z,13.57
2023-01-22T22:01:42.342Z,13.77
2023-01-22T22:04:11.310Z,13.02
2023-01-22T22:06:39.372Z,13.50
2023-01-22T22:09:09.557Z,14.55
2023-01-22T22:11:39.347Z,14.70
2023-01-22T22:14:09.848Z,13.73
2023-01-22T22:16:37.804Z,12.90
2023-01-22T22:19:07.644Z,14.23
2023-01-22T22:21:36.791Z,13.32
2023-01-22T22:24:05.082Z,13.25
2023-01-22T22:26:33.272Z,12.23
2023-01-22T22:29:02.772Z,12.20
2023-01-22T22:31:30.755Z,12.13
2023-01-22T22:33:59.101Z,11.75
2023-01-22T22:36:30.266Z,11.90
2023-01-22T22:38:58.272Z,11.88
2023-01-22T22:41:27.665Z,11.52
2023-01-22T22:43:56.584Z,10.98
2023-01-22T22:46:27.179Z,11.63
2023-01-22T22:48:57.276Z,11.75
2023-01-22T22:51:26.944Z,10.82
2023-01-22T22:53:57.458Z,11.43
2023-01-22T22:56:26.314Z,12.02
2023-01-22T22:58:55.175Z,11.25
2023-01-22T23:01:26.279Z,11.98
2023-01-22T23:03:54.674Z,11.43
2023-01-22T23:06:24.461Z,12.10
2023-01-22T23:08:54.060Z,11.23
2023-01-22T23:11:26.280Z,11.10
2023-01-22T23:13:55.254Z,11.07
2023-01-22T23:16:25.379Z,11.45
2023-01-22T23:18:54.278Z,11.38
2023-01-22T23:21:24.659Z,11.55
2023-01-22T23:23:53.191Z,11.65
2023-01-22T23:26:28.309Z,10.98
2023-01-22T23:28:57.879Z,11.00
2023-01-22T23:31:28.386Z,10.90
2023-01-22T23:33:57.663Z,11.65
2023-01-22T23:36:26.486Z,11.13
2023-01-22T23:38:54.736Z,10.73
2023-01-22T23:41:22.556Z,10.60
2023-01-22T23:43:50.928Z,10.85
2023-01-22T23:46:22.237Z,10.63
2023-01-22T23:48:51.596Z,10.95
2023-01-22T23:51:20.214Z,10.52
2023-01-22T23:53:51.557Z,10.80
2023-01-22T23:56:20.550Z,11.10
2023-01-22T23:58:48.992Z,10.38
